sensor_id;sensor_type;location;lat;lon;timestamp;P1;durP1;ratioP1;P2;durP2;ratioP2
75285;SDS011;63879;46.064;14.532;2023-04-15T06:03:03;1.35;;;0.77;;
75285;SDS011;63879;46.064;14.532;2023-04-15T06:05:29;1.45;;;0.43;;
75285;SDS011;63879;46.064;14.532;2023-04-15T06:07:54;2.10;;;0.87;;
75285;SDS011;63879;46.064;14.532;2023-04-15T06:10:20;2.22;;;0.80;;
75285;SDS011;63879;46.064;14.532;2023-04-15T06:12:45;6.87;;;2.70;;
75285;SDS011;63879;46.064;14.532;2023-04-15T06:15:11;4.40;;;1.67;;
75285;SDS011;63879;46.064;14.532;2023-04-15T06:17:37;3.78;;;1.75;;
75285;SDS011;63879;46.064;14.532;2023-04-15T06:20:03;1.52;;;0.68;;
75285;SDS011;63879;46.064;14.532;2023-04-15T06:22:28;5.03;;;1.23;;
75285;SDS011;63879;46.064;14.532;2023-04-15T06:24:54;1.13;;;0.50;;
75285;SDS011;63879;46.064;14.532;2023-04-15T06:27:20;1.45;;;0.73;;
75285;SDS011;63879;46.064;14.532;2023-04-15T06:29:46;2.30;;;0.60;;
75285;SDS011;63879;46.064;14.532;2023-04-15T06:32:12;0.87;;;0.70;;
75285;SDS011;63879;46.064;14.532;2023-04-15T06:34:37;1.27;;;0.68;;
75285;SDS011;63879;46.064;14.532;2023-04-15T06:37:03;2.70;;;0.50;;
75285;SDS011;63879;46.064;14.532;2023-04-15T06:39:28;1.30;;;0.60;;
75285;SDS011;63879;46.064;14.532;2023-04-15T06:41:54;1.20;;;0.50;;
75285;SDS011;63879;46.064;14.532;2023-04-15T06:44:20;1.92;;;0.60;;
75285;SDS011;63879;46.064;14.532;2023-04-15T06:46:46;1.73;;;0.47;;
75285;SDS011;63879;46.064;14.532;2023-04-15T06:49:11;0.67;;;0.50;;
75285;SDS011;63879;46.064;14.532;2023-04-15T06:51:36;1.27;;;0.50;;
75285;SDS011;63879;46.064;14.532;2023-04-15T06:54:02;2.10;;;0.82;;
75285;SDS011;63879;46.064;14.532;2023-04-15T06:56:33;2.90;;;1.00;;
75285;SDS011;63879;46.064;14.532;2023-04-15T06:58:58;1.30;;;0.50;;
75285;SDS011;63879;46.064;14.532;2023-04-15T07:01:24;4.35;;;0.50;;
75285;SDS011;63879;46.064;14.532;2023-04-15T07:03:50;0.80;;;0.63;;
75285;SDS011;63879;46.064;14.532;2023-04-15T07:06:16;1.33;;;0.60;;
75285;SDS011;63879;46.064;14.532;2023-04-15T07:08:42;1.55;;;0.63;;
75285;SDS011;63879;46.064;14.532;2023-04-15T07:11:08;1.10;;;0.80;;
75285;SDS011;63879;46.064;14.532;2023-04-15T07:13:33;1.10;;;0.50;;
75285;SDS011;63879;46.064;14.532;2023-04-15T07:15:58;1.20;;;0.43;;
75285;SDS011;63879;46.064;14.532;2023-04-15T07:18:24;1.03;;;0.50;;
75285;SDS011;63879;46.064;14.532;2023-04-15T07:20:49;0.88;;;0.47;;
75285;SDS011;63879;46.064;14.532;2023-04-15T07:23:15;2.83;;;0.55;;
75285;SDS011;63879;46.064;14.532;2023-04-15T07:25:41;1.00;;;0.60;;
75285;SDS011;63879;46.064;14.532;2023-04-15T07:28:06;0.77;;;0.43;;
75285;SDS011;63879;46.064;14.532;2023-04-15T07:30:34;1.90;;;0.65;;
75285;SDS011;63879;46.064;14.532;2023-04-15T07:33:00;1.38;;;0.47;;
75285;SDS011;63879;46.064;14.532;2023-04-15T07:35:26;1.17;;;0.52;;
75285;SDS011;63879;46.064;14.532;2023-04-15T07:37:53;1.35;;;0.60;;
75285;SDS011;63879;46.064;14.532;2023-04-15T07:40:18;1.00;;;0.50;;
75285;SDS011;63879;46.064;14.532;2023-04-15T07:42:44;1.83;;;0.43;;
75285;SDS011;63879;46.064;14.532;2023-04-15T07:45:09;1.13;;;0.43;;
75285;SDS011;63879;46.064;14.532;2023-04-15T07:47:35;0.93;;;0.43;;
75285;SDS011;63879;46.064;14.532;2023-04-15T07:50:01;3.10;;;0.73;;
75285;SDS011;63879;46.064;14.532;2023-04-15T07:52:26;1.93;;;0.53;;
75285;SDS011;63879;46.064;14.532;2023-04-15T07:54:52;1.20;;;0.28;;
75285;SDS011;63879;46.064;14.532;2023-04-15T07:57:18;1.02;;;0.60;;
75285;SDS011;63879;46.064;14.532;2023-04-15T07:59:43;1.55;;;0.38;;
75285;SDS011;63879;46.064;14.532;2023-04-15T08:02:09;1.40;;;0.63;;
75285;SDS011;63879;46.064;14.532;2023-04-15T08:04:35;1.25;;;0.40;;
75285;SDS011;63879;46.064;14.532;2023-04-15T08:07:01;2.95;;;0.70;;
75285;SDS011;63879;46.064;14.532;2023-04-15T08:09:27;1.35;;;0.43;;
75285;SDS011;63879;46.064;14.532;2023-04-15T08:11:53;1.77;;;0.90;;
75285;SDS011;63879;46.064;14.532;2023-04-15T08:14:18;2.53;;;1.13;;
75285;SDS011;63879;46.064;14.532;2023-04-15T08:16:44;3.10;;;0.90;;
75285;SDS011;63879;46.064;14.532;2023-04-15T08:19:09;1.48;;;0.47;;
75285;SDS011;63879;46.064;14.532;2023-04-15T08:21:35;1.20;;;0.43;;
75285;SDS011;63879;46.064;14.532;2023-04-15T08:24:00;1.88;;;0.57;;
75285;SDS011;63879;46.064;14.532;2023-04-15T08:26:27;1.30;;;0.38;;
75285;SDS011;63879;46.064;14.532;2023-04-15T08:28:52;1.20;;;0.40;;
75285;SDS011;63879;46.064;14.532;2023-04-15T08:31:18;0.80;;;0.47;;
75285;SDS011;63879;46.064;14.532;2023-04-15T08:33:43;1.98;;;0.60;;
75285;SDS011;63879;46.064;14.532;2023-04-15T08:36:09;2.03;;;0.70;;
75285;SDS011;63879;46.064;14.532;2023-04-15T08:38:34;1.63;;;0.40;;
75285;SDS011;63879;46.064;14.532;2023-04-15T08:41:02;3.17;;;0.70;;
75285;SDS011;63879;46.064;14.532;2023-04-15T08:43:33;1.88;;;0.50;;
75285;SDS011;63879;46.064;14.532;2023-04-15T08:46:00;1.42;;;0.57;;
75285;SDS011;63879;46.064;14.532;2023-04-15T08:48:29;3.47;;;0.65;;
75285;SDS011;63879;46.064;14.532;2023-04-15T08:50:56;3.00;;;0.55;;
75285;SDS011;63879;46.064;14.532;2023-04-15T08:53:23;3.50;;;0.70;;
75285;SDS011;63879;46.064;14.532;2023-04-15T08:55:50;1.15;;;0.50;;
75285;SDS011;63879;46.064;14.532;2023-04-15T08:58:16;1.23;;;0.52;;
75285;SDS011;63879;46.064;14.532;2023-04-15T09:00:42;4.70;;;1.85;;
75285;SDS011;63879;46.064;14.532;2023-04-15T09:03:07;6.60;;;1.52;;
75285;SDS011;63879;46.064;14.532;2023-04-15T09:05:34;1.45;;;0.68;;
75285;SDS011;63879;46.064;14.532;2023-04-15T09:08:00;4.57;;;1.23;;
75285;SDS011;63879;46.064;14.532;2023-04-15T09:10:26;5.75;;;1.13;;
75285;SDS011;63879;46.064;14.532;2023-04-15T09:12:52;4.20;;;0.90;;
75285;SDS011;63879;46.064;14.532;2023-04-15T09:15:18;1.95;;;0.60;;
75285;SDS011;63879;46.064;14.532;2023-04-15T09:17:44;2.05;;;0.50;;
75285;SDS011;63879;46.064;14.532;2023-04-15T09:20:13;2.63;;;0.52;;
75285;SDS011;63879;46.064;14.532;2023-04-15T09:22:40;2.55;;;0.50;;
75285;SDS011;63879;46.064;14.532;2023-04-15T09:28:08;1.88;;;0.47;;
75285;SDS011;63879;46.064;14.532;2023-04-15T09:30:34;3.40;;;0.50;;
75285;SDS011;63879;46.064;14.532;2023-04-15T09:33:00;2.67;;;1.17;;
75285;SDS011;63879;46.064;14.532;2023-04-15T09:35:28;2.90;;;0.52;;
75285;SDS011;63879;46.064;14.532;2023-04-15T09:38:07;3.88;;;0.70;;
75285;SDS011;63879;46.064;14.532;2023-04-15T09:43:00;1.10;;;0.52;;
75285;SDS011;63879;46.064;14.532;2023-04-15T09:45:26;3.58;;;0.63;;
75285;SDS011;63879;46.064;14.532;2023-04-15T09:47:52;1.85;;;0.73;;
75285;SDS011;63879;46.064;14.532;2023-04-15T09:50:18;2.83;;;0.73;;
75285;SDS011;63879;46.064;14.532;2023-04-15T09:52:44;1.85;;;0.50;;
75285;SDS011;63879;46.064;14.532;2023-04-15T09:55:10;2.88;;;0.77;;
75285;SDS011;63879;46.064;14.532;2023-04-15T09:57:37;3.40;;;1.33;;
75285;SDS011;63879;46.064;14.532;2023-04-15T10:00:03;4.15;;;1.00;;
75285;SDS011;63879;46.064;14.532;2023-04-15T10:02:29;6.38;;;1.33;;
75285;SDS011;63879;46.064;14.532;2023-04-15T10:04:55;3.42;;;1.13;;
75285;SDS011;63879;46.064;14.532;2023-04-15T10:07:21;3.58;;;0.77;;
75285;SDS011;63879;46.064;14.532;2023-04-15T10:09:47;2.17;;;1.27;;
75285;SDS011;63879;46.064;14.532;2023-04-15T10:12:13;3.42;;;0.88;;
75285;SDS011;63879;46.064;14.532;2023-04-15T10:17:07;3.22;;;1.27;;
75285;SDS011;63879;46.064;14.532;2023-04-15T10:19:35;3.35;;;0.75;;
75285;SDS011;63879;46.064;14.532;2023-04-15T10:22:02;3.00;;;0.85;;
75285;SDS011;63879;46.064;14.532;2023-04-15T10:24:27;2.75;;;0.73;;
75285;SDS011;63879;46.064;14.532;2023-04-15T10:26:53;1.35;;;0.45;;
75285;SDS011;63879;46.064;14.532;2023-04-15T10:29:18;3.20;;;0.73;;
75285;SDS011;63879;46.064;14.532;2023-04-15T10:31:44;4.70;;;0.60;;
75285;SDS011;63879;46.064;14.532;2023-04-15T10:34:10;3.40;;;0.98;;
75285;SDS011;63879;46.064;14.532;2023-04-15T10:36:36;3.15;;;1.13;;
75285;SDS011;63879;46.064;14.532;2023-04-15T10:39:02;1.25;;;0.95;;
75285;SDS011;63879;46.064;14.532;2023-04-15T10:42:07;1.65;;;0.75;;
75285;SDS011;63879;46.064;14.532;2023-04-15T10:44:37;3.70;;;0.63;;
75285;SDS011;63879;46.064;14.532;2023-04-15T10:47:05;2.92;;;0.98;;
75285;SDS011;63879;46.064;14.532;2023-04-15T10:49:34;3.80;;;1.45;;
75285;SDS011;63879;46.064;14.532;2023-04-15T10:52:07;4.63;;;1.13;;
75285;SDS011;63879;46.064;14.532;2023-04-15T10:54:32;3.43;;;0.97;;
75285;SDS011;63879;46.064;14.532;2023-04-15T10:59:32;3.90;;;1.17;;
75285;SDS011;63879;46.064;14.532;2023-04-15T11:02:02;3.15;;;1.20;;
75285;SDS011;63879;46.064;14.532;2023-04-15T11:12:46;2.63;;;0.70;;
75285;SDS011;63879;46.064;14.532;2023-04-15T11:15:28;2.53;;;0.82;;
75285;SDS011;63879;46.064;14.532;2023-04-15T11:20:41;1.75;;;0.80;;
75285;SDS011;63879;46.064;14.532;2023-04-15T11:23:26;3.05;;;0.82;;
75285;SDS011;63879;46.064;14.532;2023-04-15T11:25:55;1.38;;;0.38;;
75285;SDS011;63879;46.064;14.532;2023-04-15T11:28:24;1.10;;;0.40;;
75285;SDS011;63879;46.064;14.532;2023-04-15T11:30:50;1.90;;;0.50;;
75285;SDS011;63879;46.064;14.532;2023-04-15T11:33:16;2.90;;;0.70;;
75285;SDS011;63879;46.064;14.532;2023-04-15T11:35:41;1.40;;;0.80;;
75285;SDS011;63879;46.064;14.532;2023-04-15T11:38:08;1.38;;;0.73;;
75285;SDS011;63879;46.064;14.532;2023-04-15T11:40:36;0.65;;;0.30;;
75285;SDS011;63879;46.064;14.532;2023-04-15T11:45:46;1.38;;;0.60;;
75285;SDS011;63879;46.064;14.532;2023-04-15T11:48:23;1.70;;;0.43;;
75285;SDS011;63879;46.064;14.532;2023-04-15T11:50:56;3.17;;;0.90;;
75285;SDS011;63879;46.064;14.532;2023-04-15T11:53:22;1.30;;;0.50;;
75285;SDS011;63879;46.064;14.532;2023-04-15T11:55:50;3.00;;;0.80;;
75285;SDS011;63879;46.064;14.532;2023-04-15T11:58:20;2.88;;;0.57;;
75285;SDS011;63879;46.064;14.532;2023-04-15T12:11:12;0.88;;;0.50;;
75285;SDS011;63879;46.064;14.532;2023-04-15T12:13:37;2.92;;;0.65;;
75285;SDS011;63879;46.064;14.532;2023-04-15T12:16:03;1.10;;;0.50;;
75285;SDS011;63879;46.064;14.532;2023-04-15T12:18:28;1.85;;;0.52;;
75285;SDS011;63879;46.064;14.532;2023-04-15T12:20:54;2.23;;;0.53;;
75285;SDS011;63879;46.064;14.532;2023-04-15T12:23:19;2.57;;;0.90;;
75285;SDS011;63879;46.064;14.532;2023-04-15T12:25:50;1.60;;;0.70;;
75285;SDS011;63879;46.064;14.532;2023-04-15T12:28:16;1.92;;;0.70;;
75285;SDS011;63879;46.064;14.532;2023-04-15T12:30:49;2.90;;;0.73;;
75285;SDS011;63879;46.064;14.532;2023-04-15T12:33:15;2.28;;;0.40;;
75285;SDS011;63879;46.064;14.532;2023-04-15T12:35:41;2.63;;;1.63;;
75285;SDS011;63879;46.064;14.532;2023-04-15T12:38:06;2.23;;;0.80;;
75285;SDS011;63879;46.064;14.532;2023-04-15T12:40:34;3.03;;;0.40;;
75285;SDS011;63879;46.064;14.532;2023-04-15T12:42:59;4.20;;;0.90;;
75285;SDS011;63879;46.064;14.532;2023-04-15T12:45:25;3.45;;;0.70;;
75285;SDS011;63879;46.064;14.532;2023-04-15T12:47:50;1.63;;;0.40;;
75285;SDS011;63879;46.064;14.532;2023-04-15T12:50:15;1.93;;;0.53;;
75285;SDS011;63879;46.064;14.532;2023-04-15T12:52:42;1.55;;;0.60;;
75285;SDS011;63879;46.064;14.532;2023-04-15T12:55:08;2.55;;;0.52;;
75285;SDS011;63879;46.064;14.532;2023-04-15T12:57:33;1.13;;;0.50;;
75285;SDS011;63879;46.064;14.532;2023-04-15T12:59:58;4.37;;;0.50;;
75285;SDS011;63879;46.064;14.532;2023-04-15T13:02:24;4.25;;;1.38;;
75285;SDS011;63879;46.064;14.532;2023-04-15T13:04:52;1.77;;;0.60;;
75285;SDS011;63879;46.064;14.532;2023-04-15T13:07:17;3.47;;;0.60;;
75285;SDS011;63879;46.064;14.532;2023-04-15T13:09:43;2.47;;;0.67;;
75285;SDS011;63879;46.064;14.532;2023-04-15T13:12:08;1.95;;;0.90;;
75285;SDS011;63879;46.064;14.532;2023-04-15T13:14:34;3.00;;;0.93;;
75285;SDS011;63879;46.064;14.532;2023-04-15T13:16:59;1.80;;;0.83;;
75285;SDS011;63879;46.064;14.532;2023-04-15T13:19:25;1.73;;;0.70;;
75285;SDS011;63879;46.064;14.532;2023-04-15T13:21:50;1.75;;;0.73;;
75285;SDS011;63879;46.064;14.532;2023-04-15T13:24:16;2.50;;;0.82;;
75285;SDS011;63879;46.064;14.532;2023-04-15T13:26:41;1.57;;;0.70;;
75285;SDS011;63879;46.064;14.532;2023-04-15T13:29:06;1.60;;;0.80;;
75285;SDS011;63879;46.064;14.532;2023-04-15T13:31:32;1.73;;;0.73;;
75285;SDS011;63879;46.064;14.532;2023-04-15T13:33:57;2.70;;;1.20;;
75285;SDS011;63879;46.064;14.532;2023-04-15T13:36:22;1.70;;;0.50;;
75285;SDS011;63879;46.064;14.532;2023-04-15T13:38:48;2.72;;;1.15;;
75285;SDS011;63879;46.064;14.532;2023-04-15T13:41:13;1.25;;;0.63;;
75285;SDS011;63879;46.064;14.532;2023-04-15T13:43:39;1.27;;;0.52;;
75285;SDS011;63879;46.064;14.532;2023-04-15T13:46:04;1.35;;;0.52;;
75285;SDS011;63879;46.064;14.532;2023-04-15T13:48:30;1.73;;;0.82;;
75285;SDS011;63879;46.064;14.532;2023-04-15T13:50:55;1.15;;;0.60;;
75285;SDS011;63879;46.064;14.532;2023-04-15T13:53:20;2.30;;;1.30;;
75285;SDS011;63879;46.064;14.532;2023-04-15T13:55:46;1.45;;;0.63;;
75285;SDS011;63879;46.064;14.532;2023-04-15T13:58:11;2.00;;;0.73;;
75285;SDS011;63879;46.064;14.532;2023-04-15T14:00:37;2.15;;;0.70;;
75285;SDS011;63879;46.064;14.532;2023-04-15T14:03:02;1.73;;;1.00;;
75285;SDS011;63879;46.064;14.532;2023-04-15T14:05:28;2.33;;;0.80;;
75285;SDS011;63879;46.064;14.532;2023-04-15T14:07:53;1.83;;;0.90;;
75285;SDS011;63879;46.064;14.532;2023-04-15T14:10:19;4.53;;;0.93;;
75285;SDS011;63879;46.064;14.532;2023-04-15T14:12:44;2.40;;;0.85;;
75285;SDS011;63879;46.064;14.532;2023-04-15T14:15:10;3.47;;;1.03;;
75285;SDS011;63879;46.064;14.532;2023-04-15T14:17:35;2.42;;;0.80;;
75285;SDS011;63879;46.064;14.532;2023-04-15T14:20:01;1.60;;;0.93;;
75285;SDS011;63879;46.064;14.532;2023-04-15T14:22:26;1.92;;;1.00;;
75285;SDS011;63879;46.064;14.532;2023-04-15T14:24:52;4.27;;;1.23;;
75285;SDS011;63879;46.064;14.532;2023-04-15T14:27:18;1.92;;;0.80;;
75285;SDS011;63879;46.064;14.532;2023-04-15T14:29:44;4.00;;;1.00;;
75285;SDS011;63879;46.064;14.532;2023-04-15T14:32:09;2.80;;;0.88;;
75285;SDS011;63879;46.064;14.532;2023-04-15T14:34:34;1.42;;;0.68;;
75285;SDS011;63879;46.064;14.532;2023-04-15T14:37:01;2.08;;;0.80;;
75285;SDS011;63879;46.064;14.532;2023-04-15T14:39:27;2.47;;;0.73;;
75285;SDS011;63879;46.064;14.532;2023-04-15T14:41:52;1.92;;;0.80;;
75285;SDS011;63879;46.064;14.532;2023-04-15T14:44:18;3.92;;;1.15;;
75285;SDS011;63879;46.064;14.532;2023-04-15T14:46:43;2.20;;;1.77;;
75285;SDS011;63879;46.064;14.532;2023-04-15T14:49:08;2.70;;;0.80;;
75285;SDS011;63879;46.064;14.532;2023-04-15T14:51:34;1.60;;;0.67;;
75285;SDS011;63879;46.064;14.532;2023-04-15T14:53:59;4.07;;;1.07;;
75285;SDS011;63879;46.064;14.532;2023-04-15T14:56:25;2.22;;;1.48;;
75285;SDS011;63879;46.064;14.532;2023-04-15T14:58:51;1.35;;;0.70;;
75285;SDS011;63879;46.064;14.532;2023-04-15T15:01:18;2.85;;;0.93;;
75285;SDS011;63879;46.064;14.532;2023-04-15T15:03:44;1.30;;;0.70;;
75285;SDS011;63879;46.064;14.532;2023-04-15T15:06:10;2.53;;;0.80;;
75285;SDS011;63879;46.064;14.532;2023-04-15T15:08:35;1.77;;;0.63;;
75285;SDS011;63879;46.064;14.532;2023-04-15T15:11:01;2.08;;;1.00;;
75285;SDS011;63879;46.064;14.532;2023-04-15T15:13:26;2.17;;;0.60;;
75285;SDS011;63879;46.064;14.532;2023-04-15T15:15:51;1.10;;;0.50;;
75285;SDS011;63879;46.064;14.532;2023-04-15T15:18:17;3.47;;;0.97;;
75285;SDS011;63879;46.064;14.532;2023-04-15T15:20:43;2.13;;;0.77;;
75285;SDS011;63879;46.064;14.532;2023-04-15T15:23:08;2.95;;;1.05;;
75285;SDS011;63879;46.064;14.532;2023-04-15T15:25:34;2.67;;;0.73;;
75285;SDS011;63879;46.064;14.532;2023-04-15T15:27:59;2.55;;;0.98;;
75285;SDS011;63879;46.064;14.532;2023-04-15T15:30:25;2.95;;;0.95;;
75285;SDS011;63879;46.064;14.532;2023-04-15T15:32:50;2.70;;;1.10;;
75285;SDS011;63879;46.064;14.532;2023-04-15T15:35:15;5.10;;;1.95;;
75285;SDS011;63879;46.064;14.532;2023-04-15T15:37:41;1.20;;;0.40;;
75285;SDS011;63879;46.064;14.532;2023-04-15T15:40:07;2.17;;;0.57;;
75285;SDS011;63879;46.064;14.532;2023-04-15T15:42:33;1.90;;;0.68;;
75285;SDS011;63879;46.064;14.532;2023-04-15T15:44:58;2.10;;;0.88;;
75285;SDS011;63879;46.064;14.532;2023-04-15T15:47:24;1.27;;;0.40;;
75285;SDS011;63879;46.064;14.532;2023-04-15T15:49:53;1.20;;;0.70;;
75285;SDS011;63879;46.064;14.532;2023-04-15T15:52:18;2.10;;;0.75;;
75285;SDS011;63879;46.064;14.532;2023-04-15T15:54:44;1.10;;;0.68;;
75285;SDS011;63879;46.064;14.532;2023-04-15T15:57:09;1.53;;;0.60;;
75285;SDS011;63879;46.064;14.532;2023-04-15T15:59:35;2.80;;;0.73;;
75285;SDS011;63879;46.064;14.532;2023-04-15T16:02:05;1.20;;;0.60;;
75285;SDS011;63879;46.064;14.532;2023-04-15T16:04:32;1.90;;;0.95;;
75285;SDS011;63879;46.064;14.532;2023-04-15T16:06:58;2.38;;;1.25;;
75285;SDS011;63879;46.064;14.532;2023-04-15T16:09:23;2.97;;;1.10;;
75285;SDS011;63879;46.064;14.532;2023-04-15T16:11:48;2.10;;;1.15;;
75285;SDS011;63879;46.064;14.532;2023-04-15T16:14:14;3.00;;;1.20;;
75285;SDS011;63879;46.064;14.532;2023-04-15T16:16:39;2.83;;;1.15;;
75285;SDS011;63879;46.064;14.532;2023-04-15T16:19:07;2.10;;;1.20;;
75285;SDS011;63879;46.064;14.532;2023-04-15T16:21:33;3.50;;;1.40;;
75285;SDS011;63879;46.064;14.532;2023-04-15T16:23:58;2.20;;;0.98;;
75285;SDS011;63879;46.064;14.532;2023-04-15T16:26:24;1.97;;;0.80;;
75285;SDS011;63879;46.064;14.532;2023-04-15T16:28:49;3.63;;;1.02;;
75285;SDS011;63879;46.064;14.532;2023-04-15T16:31:14;2.40;;;1.10;;
75285;SDS011;63879;46.064;14.532;2023-04-15T16:33:40;0.93;;;0.52;;
75285;SDS011;63879;46.064;14.532;2023-04-15T16:36:05;2.17;;;0.90;;
75285;SDS011;63879;46.064;14.532;2023-04-15T16:38:31;3.28;;;0.80;;
75285;SDS011;63879;46.064;14.532;2023-04-15T16:40:57;2.03;;;0.70;;
75285;SDS011;63879;46.064;14.532;2023-04-15T16:43:24;1.83;;;1.00;;
75285;SDS011;63879;46.064;14.532;2023-04-15T16:45:50;3.33;;;0.85;;
75285;SDS011;63879;46.064;14.532;2023-04-15T16:48:15;1.92;;;0.68;;
75285;SDS011;63879;46.064;14.532;2023-04-15T16:50:41;2.10;;;0.80;;
75285;SDS011;63879;46.064;14.532;2023-04-15T16:53:07;3.00;;;0.98;;
75285;SDS011;63879;46.064;14.532;2023-04-15T16:55:32;1.57;;;0.70;;
75285;SDS011;63879;46.064;14.532;2023-04-15T16:57:57;1.80;;;0.73;;
75285;SDS011;63879;46.064;14.532;2023-04-15T17:00:23;2.00;;;0.70;;
75285;SDS011;63879;46.064;14.532;2023-04-15T17:02:48;2.80;;;1.30;;
75285;SDS011;63879;46.064;14.532;2023-04-15T17:05:14;2.10;;;0.80;;
75285;SDS011;63879;46.064;14.532;2023-04-15T17:07:39;2.22;;;0.70;;
75285;SDS011;63879;46.064;14.532;2023-04-15T17:10:04;1.93;;;0.73;;
75285;SDS011;63879;46.064;14.532;2023-04-15T17:12:30;1.42;;;0.63;;
75285;SDS011;63879;46.064;14.532;2023-04-15T17:14:55;2.10;;;0.97;;
75285;SDS011;63879;46.064;14.532;2023-04-15T17:17:21;2.00;;;0.80;;
75285;SDS011;63879;46.064;14.532;2023-04-15T17:19:46;2.13;;;0.65;;
75285;SDS011;63879;46.064;14.532;2023-04-15T17:22:12;1.42;;;0.63;;
75285;SDS011;63879;46.064;14.532;2023-04-15T17:24:37;1.60;;;1.27;;
75285;SDS011;63879;46.064;14.532;2023-04-15T17:27:03;2.07;;;0.77;;
75285;SDS011;63879;46.064;14.532;2023-04-15T17:29:28;2.58;;;1.05;;
75285;SDS011;63879;46.064;14.532;2023-04-15T17:31:53;2.45;;;1.52;;
75285;SDS011;63879;46.064;14.532;2023-04-15T17:34:19;2.35;;;1.20;;
75285;SDS011;63879;46.064;14.532;2023-04-15T17:36:44;3.42;;;1.35;;
75285;SDS011;63879;46.064;14.532;2023-04-15T17:39:10;4.13;;;1.70;;
75285;SDS011;63879;46.064;14.532;2023-04-15T17:41:35;2.90;;;1.42;;
75285;SDS011;63879;46.064;14.532;2023-04-15T17:44:01;2.92;;;1.50;;
75285;SDS011;63879;46.064;14.532;2023-04-15T17:46:27;2.22;;;1.20;;
75285;SDS011;63879;46.064;14.532;2023-04-15T17:48:52;3.88;;;1.63;;
75285;SDS011;63879;46.064;14.532;2023-04-15T17:51:17;4.57;;;1.43;;
75285;SDS011;63879;46.064;14.532;2023-04-15T17:53:43;3.80;;;1.25;;
75285;SDS011;63879;46.064;14.532;2023-04-15T17:56:08;2.53;;;1.10;;
75285;SDS011;63879;46.064;14.532;2023-04-15T17:58:33;2.92;;;1.38;;
75285;SDS011;63879;46.064;14.532;2023-04-15T18:00:59;1.73;;;0.97;;
75285;SDS011;63879;46.064;14.532;2023-04-15T18:03:24;4.10;;;2.30;;
75285;SDS011;63879;46.064;14.532;2023-04-15T18:05:50;4.03;;;2.75;;
75285;SDS011;63879;46.064;14.532;2023-04-15T18:08:16;3.88;;;2.53;;
75285;SDS011;63879;46.064;14.532;2023-04-15T18:10:41;2.83;;;1.45;;
75285;SDS011;63879;46.064;14.532;2023-04-15T18:13:06;4.10;;;1.80;;
75285;SDS011;63879;46.064;14.532;2023-04-15T18:15:32;5.03;;;2.40;;
75285;SDS011;63879;46.064;14.532;2023-04-15T18:17:58;6.88;;;3.35;;
75285;SDS011;63879;46.064;14.532;2023-04-15T18:20:23;4.55;;;2.50;;
75285;SDS011;63879;46.064;14.532;2023-04-15T18:22:49;2.88;;;2.13;;
75285;SDS011;63879;46.064;14.532;2023-04-15T18:25:15;3.30;;;1.90;;
75285;SDS011;63879;46.064;14.532;2023-04-15T18:27:41;4.22;;;2.53;;
75285;SDS011;63879;46.064;14.532;2023-04-15T18:30:07;4.28;;;2.40;;
75285;SDS011;63879;46.064;14.532;2023-04-15T18:32:33;4.97;;;2.75;;
75285;SDS011;63879;46.064;14.532;2023-04-15T18:34:59;6.03;;;2.83;;
75285;SDS011;63879;46.064;14.532;2023-04-15T18:37:25;4.28;;;2.10;;
75285;SDS011;63879;46.064;14.532;2023-04-15T18:39:50;6.35;;;2.95;;
75285;SDS011;63879;46.064;14.532;2023-04-15T18:42:16;4.15;;;2.70;;
75285;SDS011;63879;46.064;14.532;2023-04-15T18:44:41;5.03;;;2.65;;
75285;SDS011;63879;46.064;14.532;2023-04-15T18:47:07;4.07;;;2.10;;
75285;SDS011;63879;46.064;14.532;2023-04-15T18:49:32;4.15;;;1.70;;
75285;SDS011;63879;46.064;14.532;2023-04-15T18:51:58;3.88;;;2.15;;
75285;SDS011;63879;46.064;14.532;2023-04-15T18:54:23;3.55;;;1.52;;
75285;SDS011;63879;46.064;14.532;2023-04-15T18:56:49;3.17;;;1.87;;
75285;SDS011;63879;46.064;14.532;2023-04-15T18:59:15;4.78;;;2.28;;
75285;SDS011;63879;46.064;14.532;2023-04-15T19:01:40;3.10;;;1.67;;
75285;SDS011;63879;46.064;14.532;2023-04-15T19:04:05;3.47;;;2.05;;
75285;SDS011;63879;46.064;14.532;2023-04-15T19:06:31;3.88;;;2.05;;
75285;SDS011;63879;46.064;14.532;2023-04-15T19:08:56;5.18;;;3.30;;
75285;SDS011;63879;46.064;14.532;2023-04-15T19:11:22;6.28;;;3.53;;
75285;SDS011;63879;46.064;14.532;2023-04-15T19:13:47;4.05;;;2.50;;
75285;SDS011;63879;46.064;14.532;2023-04-15T19:16:13;5.35;;;3.45;;
75285;SDS011;63879;46.064;14.532;2023-04-15T19:18:38;6.82;;;3.83;;
75285;SDS011;63879;46.064;14.532;2023-04-15T19:21:04;7.25;;;3.80;;
75285;SDS011;63879;46.064;14.532;2023-04-15T19:23:29;9.03;;;4.63;;
75285;SDS011;63879;46.064;14.532;2023-04-15T19:25:55;4.25;;;2.58;;
75285;SDS011;63879;46.064;14.532;2023-04-15T19:28:21;9.10;;;3.92;;
75285;SDS011;63879;46.064;14.532;2023-04-15T19:30:46;8.55;;;4.78;;
75285;SDS011;63879;46.064;14.532;2023-04-15T19:33:12;6.95;;;3.60;;
75285;SDS011;63879;46.064;14.532;2023-04-15T19:35:38;7.67;;;4.37;;
75285;SDS011;63879;46.064;14.532;2023-04-15T19:38:04;6.20;;;3.97;;
75285;SDS011;63879;46.064;14.532;2023-04-15T19:40:30;6.82;;;4.50;;
75285;SDS011;63879;46.064;14.532;2023-04-15T19:42:55;7.53;;;4.57;;
75285;SDS011;63879;46.064;14.532;2023-04-15T19:45:20;9.03;;;5.37;;
75285;SDS011;63879;46.064;14.532;2023-04-15T19:47:46;7.50;;;4.35;;
75285;SDS011;63879;46.064;14.532;2023-04-15T19:50:11;11.15;;;6.10;;
75285;SDS011;63879;46.064;14.532;2023-04-15T19:52:36;7.00;;;3.95;;
75285;SDS011;63879;46.064;14.532;2023-04-15T19:55:02;7.38;;;4.50;;
75285;SDS011;63879;46.064;14.532;2023-04-15T19:57:28;9.18;;;4.88;;
75285;SDS011;63879;46.064;14.532;2023-04-15T19:59:53;7.95;;;4.93;;
75285;SDS011;63879;46.064;14.532;2023-04-15T20:02:19;6.75;;;4.40;;
75285;SDS011;63879;46.064;14.532;2023-04-15T20:04:44;9.20;;;5.57;;
75285;SDS011;63879;46.064;14.532;2023-04-15T20:07:09;7.18;;;3.42;;
75285;SDS011;63879;46.064;14.532;2023-04-15T20:09:35;6.90;;;4.10;;
75285;SDS011;63879;46.064;14.532;2023-04-15T20:12:00;7.05;;;3.88;;
75285;SDS011;63879;46.064;14.532;2023-04-15T20:14:26;6.35;;;4.45;;
75285;SDS011;63879;46.064;14.532;2023-04-15T20:16:51;6.73;;;4.20;;
75285;SDS011;63879;46.064;14.532;2023-04-15T20:19:17;6.82;;;4.25;;
75285;SDS011;63879;46.064;14.532;2023-04-15T20:21:42;10.50;;;5.50;;
75285;SDS011;63879;46.064;14.532;2023-04-15T20:24:07;6.97;;;3.87;;
75285;SDS011;63879;46.064;14.532;2023-04-15T20:26:33;7.90;;;5.28;;
75285;SDS011;63879;46.064;14.532;2023-04-15T20:28:58;7.77;;;4.10;;
75285;SDS011;63879;46.064;14.532;2023-04-15T20:31:24;6.32;;;3.90;;
75285;SDS011;63879;46.064;14.532;2023-04-15T20:33:49;8.98;;;4.38;;
75285;SDS011;63879;46.064;14.532;2023-04-15T20:36:15;8.63;;;5.23;;
75285;SDS011;63879;46.064;14.532;2023-04-15T20:38:40;7.35;;;5.07;;
75285;SDS011;63879;46.064;14.532;2023-04-15T20:41:06;10.07;;;6.50;;
75285;SDS011;63879;46.064;14.532;2023-04-15T20:43:31;9.77;;;6.43;;
75285;SDS011;63879;46.064;14.532;2023-04-15T20:45:56;9.50;;;6.70;;
75285;SDS011;63879;46.064;14.532;2023-04-15T20:48:22;9.50;;;6.10;;
75285;SDS011;63879;46.064;14.532;2023-04-15T20:50:48;7.68;;;5.32;;
75285;SDS011;63879;46.064;14.532;2023-04-15T20:53:14;8.02;;;5.32;;
75285;SDS011;63879;46.064;14.532;2023-04-15T20:55:39;10.38;;;5.90;;
75285;SDS011;63879;46.064;14.532;2023-04-15T20:58:05;9.45;;;5.60;;
